sensor_id;sensor_type;location;lat;lon;timestamp;P1;durP1;ratioP1;P2;durP2;ratioP2
78416;SDS011;67715;46.170;6.140;2023-08-06T00:01:10;1.30;;;0.90;;
78416;SDS011;67715;46.170;6.140;2023-08-06T00:03:35;1.93;;;1.20;;
78416;SDS011;67715;46.170;6.140;2023-08-06T00:06:01;1.60;;;1.10;;
78416;SDS011;67715;46.170;6.140;2023-08-06T00:08:26;2.78;;;1.10;;
78416;SDS011;67715;46.170;6.140;2023-08-06T00:10:52;1.50;;;1.00;;
78416;SDS011;67715;46.170;6.140;2023-08-06T00:13:17;1.10;;;0.93;;
78416;SDS011;67715;46.170;6.140;2023-08-06T00:15:43;1.50;;;0.90;;
78416;SDS011;67715;46.170;6.140;2023-08-06T00:18:08;1.67;;;0.80;;
78416;SDS011;67715;46.170;6.140;2023-08-06T00:20:33;2.75;;;1.10;;
78416;SDS011;67715;46.170;6.140;2023-08-06T00:22:59;1.90;;;1.00;;
78416;SDS011;67715;46.170;6.140;2023-08-06T00:25:24;1.90;;;0.85;;
78416;SDS011;67715;46.170;6.140;2023-08-06T00:27:49;1.70;;;1.00;;
78416;SDS011;67715;46.170;6.140;2023-08-06T00:30:15;1.30;;;0.90;;
78416;SDS011;67715;46.170;6.140;2023-08-06T00:32:40;1.70;;;0.97;;
78416;SDS011;67715;46.170;6.140;2023-08-06T00:35:05;1.67;;;0.83;;
78416;SDS011;67715;46.170;6.140;2023-08-06T00:37:31;1.55;;;0.93;;
78416;SDS011;67715;46.170;6.140;2023-08-06T00:39:56;3.60;;;1.30;;
78416;SDS011;67715;46.170;6.140;2023-08-06T00:42:22;1.23;;;0.80;;
78416;SDS011;67715;46.170;6.140;2023-08-06T00:44:47;1.25;;;0.80;;
78416;SDS011;67715;46.170;6.140;2023-08-06T00:47:13;2.05;;;1.00;;
78416;SDS011;67715;46.170;6.140;2023-08-06T00:49:38;1.65;;;1.10;;
78416;SDS011;67715;46.170;6.140;2023-08-06T00:52:04;1.95;;;0.85;;
78416;SDS011;67715;46.170;6.140;2023-08-06T00:54:30;1.60;;;0.93;;
78416;SDS011;67715;46.170;6.140;2023-08-06T00:56:56;1.45;;;0.93;;
78416;SDS011;67715;46.170;6.140;2023-08-06T00:59:22;1.42;;;0.85;;
78416;SDS011;67715;46.170;6.140;2023-08-06T01:01:48;2.00;;;0.88;;
78416;SDS011;67715;46.170;6.140;2023-08-06T01:04:15;1.10;;;0.80;;
78416;SDS011;67715;46.170;6.140;2023-08-06T01:11:56;3.60;;;0.88;;
78416;SDS011;67715;46.170;6.140;2023-08-06T01:14:28;2.50;;;0.75;;
78416;SDS011;67715;46.170;6.140;2023-08-06T01:16:56;1.33;;;0.93;;
78416;SDS011;67715;46.170;6.140;2023-08-06T01:19:23;1.70;;;1.05;;
78416;SDS011;67715;46.170;6.140;2023-08-06T01:21:48;1.43;;;0.57;;
78416;SDS011;67715;46.170;6.140;2023-08-06T01:24:14;1.50;;;1.20;;
78416;SDS011;67715;46.170;6.140;2023-08-06T01:29:17;1.40;;;0.70;;
78416;SDS011;67715;46.170;6.140;2023-08-06T01:31:47;1.08;;;0.80;;
78416;SDS011;67715;46.170;6.140;2023-08-06T01:34:16;4.05;;;1.00;;
78416;SDS011;67715;46.170;6.140;2023-08-06T01:36:42;2.00;;;0.73;;
78416;SDS011;67715;46.170;6.140;2023-08-06T01:39:08;2.25;;;0.80;;
78416;SDS011;67715;46.170;6.140;2023-08-06T01:41:34;1.50;;;0.90;;
78416;SDS011;67715;46.170;6.140;2023-08-06T01:43:59;2.10;;;1.00;;
78416;SDS011;67715;46.170;6.140;2023-08-06T01:46:24;2.43;;;0.97;;
78416;SDS011;67715;46.170;6.140;2023-08-06T01:48:50;1.63;;;1.13;;
78416;SDS011;67715;46.170;6.140;2023-08-06T01:51:15;1.43;;;0.80;;
78416;SDS011;67715;46.170;6.140;2023-08-06T01:53:40;1.80;;;1.00;;
78416;SDS011;67715;46.170;6.140;2023-08-06T01:56:06;2.47;;;1.08;;
78416;SDS011;67715;46.170;6.140;2023-08-06T01:58:31;2.50;;;0.90;;
78416;SDS011;67715;46.170;6.140;2023-08-06T02:00:56;2.20;;;1.10;;
78416;SDS011;67715;46.170;6.140;2023-08-06T02:03:21;3.10;;;1.60;;
78416;SDS011;67715;46.170;6.140;2023-08-06T02:05:47;1.87;;;1.07;;
78416;SDS011;67715;46.170;6.140;2023-08-06T02:08:12;1.57;;;0.90;;
78416;SDS011;67715;46.170;6.140;2023-08-06T02:10:38;1.97;;;1.10;;
78416;SDS011;67715;46.170;6.140;2023-08-06T02:13:03;1.67;;;0.90;;
78416;SDS011;67715;46.170;6.140;2023-08-06T02:15:28;1.90;;;1.00;;
78416;SDS011;67715;46.170;6.140;2023-08-06T02:17:54;1.27;;;0.80;;
78416;SDS011;67715;46.170;6.140;2023-08-06T02:20:19;1.63;;;0.90;;
78416;SDS011;67715;46.170;6.140;2023-08-06T02:22:44;1.23;;;0.83;;
78416;SDS011;67715;46.170;6.140;2023-08-06T02:25:10;2.67;;;0.97;;
78416;SDS011;67715;46.170;6.140;2023-08-06T02:27:35;2.43;;;0.90;;
78416;SDS011;67715;46.170;6.140;2023-08-06T02:30:00;1.67;;;0.93;;
78416;SDS011;67715;46.170;6.140;2023-08-06T02:32:27;1.65;;;0.95;;
78416;SDS011;67715;46.170;6.140;2023-08-06T02:34:54;2.05;;;1.02;;
78416;SDS011;67715;46.170;6.140;2023-08-06T02:37:20;1.97;;;1.10;;
78416;SDS011;67715;46.170;6.140;2023-08-06T02:39:45;1.10;;;0.77;;
78416;SDS011;67715;46.170;6.140;2023-08-06T02:42:10;1.17;;;0.70;;
78416;SDS011;67715;46.170;6.140;2023-08-06T02:44:35;1.65;;;0.70;;
78416;SDS011;67715;46.170;6.140;2023-08-06T02:47:01;1.15;;;0.68;;
78416;SDS011;67715;46.170;6.140;2023-08-06T02:49:26;1.92;;;0.88;;
78416;SDS011;67715;46.170;6.140;2023-08-06T02:51:52;2.75;;;1.20;;
78416;SDS011;67715;46.170;6.140;2023-08-06T02:54:18;1.20;;;0.80;;
78416;SDS011;67715;46.170;6.140;2023-08-06T02:56:44;1.23;;;1.02;;
78416;SDS011;67715;46.170;6.140;2023-08-06T02:59:10;3.85;;;1.30;;
78416;SDS011;67715;46.170;6.140;2023-08-06T03:01:35;4.57;;;1.02;;
78416;SDS011;67715;46.170;6.140;2023-08-06T03:04:01;2.78;;;1.00;;
78416;SDS011;67715;46.170;6.140;2023-08-06T03:06:26;1.60;;;0.88;;
78416;SDS011;67715;46.170;6.140;2023-08-06T03:08:52;2.30;;;1.10;;
78416;SDS011;67715;46.170;6.140;2023-08-06T03:11:17;2.80;;;1.10;;
78416;SDS011;67715;46.170;6.140;2023-08-06T03:13:42;4.93;;;1.70;;
78416;SDS011;67715;46.170;6.140;2023-08-06T03:16:08;2.30;;;0.97;;
78416;SDS011;67715;46.170;6.140;2023-08-06T03:18:33;3.73;;;1.30;;
78416;SDS011;67715;46.170;6.140;2023-08-06T03:20:58;3.30;;;1.33;;
78416;SDS011;67715;46.170;6.140;2023-08-06T03:23:23;3.27;;;1.30;;
78416;SDS011;67715;46.170;6.140;2023-08-06T03:25:49;2.73;;;1.47;;
78416;SDS011;67715;46.170;6.140;2023-08-06T03:28:14;4.70;;;1.30;;
78416;SDS011;67715;46.170;6.140;2023-08-06T03:30:40;3.33;;;1.13;;
78416;SDS011;67715;46.170;6.140;2023-08-06T03:33:05;3.10;;;1.17;;
78416;SDS011;67715;46.170;6.140;2023-08-06T03:35:30;3.10;;;1.03;;
78416;SDS011;67715;46.170;6.140;2023-08-06T03:37:56;5.43;;;1.20;;
78416;SDS011;67715;46.170;6.140;2023-08-06T03:40:21;3.57;;;1.13;;
78416;SDS011;67715;46.170;6.140;2023-08-06T03:42:46;5.33;;;1.40;;
78416;SDS011;67715;46.170;6.140;2023-08-06T03:45:12;3.87;;;1.57;;
78416;SDS011;67715;46.170;6.140;2023-08-06T03:47:37;2.40;;;1.13;;
78416;SDS011;67715;46.170;6.140;2023-08-06T03:50:02;7.03;;;1.40;;
78416;SDS011;67715;46.170;6.140;2023-08-06T03:52:28;2.25;;;1.20;;
78416;SDS011;67715;46.170;6.140;2023-08-06T03:54:53;6.67;;;1.30;;
78416;SDS011;67715;46.170;6.140;2023-08-06T03:57:18;5.47;;;1.57;;
78416;SDS011;67715;46.170;6.140;2023-08-06T03:59:44;5.67;;;1.60;;
78416;SDS011;67715;46.170;6.140;2023-08-06T04:02:09;3.77;;;1.20;;
78416;SDS011;67715;46.170;6.140;2023-08-06T04:04:34;6.73;;;1.67;;
78416;SDS011;67715;46.170;6.140;2023-08-06T04:06:59;6.73;;;1.87;;
78416;SDS011;67715;46.170;6.140;2023-08-06T04:09:25;4.32;;;1.20;;
78416;SDS011;67715;46.170;6.140;2023-08-06T04:11:52;4.65;;;1.60;;
78416;SDS011;67715;46.170;6.140;2023-08-06T04:14:18;4.00;;;1.50;;
78416;SDS011;67715;46.170;6.140;2023-08-06T04:16:43;4.10;;;1.07;;
78416;SDS011;67715;46.170;6.140;2023-08-06T04:19:08;5.60;;;1.10;;
78416;SDS011;67715;46.170;6.140;2023-08-06T04:21:34;5.90;;;1.33;;
78416;SDS011;67715;46.170;6.140;2023-08-06T04:23:59;4.07;;;1.30;;
78416;SDS011;67715;46.170;6.140;2023-08-06T04:26:25;3.78;;;1.35;;
78416;SDS011;67715;46.170;6.140;2023-08-06T04:28:50;6.60;;;1.50;;
78416;SDS011;67715;46.170;6.140;2023-08-06T04:31:15;3.30;;;1.30;;
78416;SDS011;67715;46.170;6.140;2023-08-06T04:33:41;4.97;;;1.40;;
78416;SDS011;67715;46.170;6.140;2023-08-06T04:36:07;7.37;;;1.67;;
78416;SDS011;67715;46.170;6.140;2023-08-06T04:38:33;8.07;;;1.60;;
78416;SDS011;67715;46.170;6.140;2023-08-06T04:40:58;7.70;;;1.50;;
78416;SDS011;67715;46.170;6.140;2023-08-06T04:43:23;7.60;;;1.48;;
78416;SDS011;67715;46.170;6.140;2023-08-06T04:45:49;6.32;;;1.67;;
78416;SDS011;67715;46.170;6.140;2023-08-06T04:48:16;6.75;;;1.65;;
78416;SDS011;67715;46.170;6.140;2023-08-06T04:50:44;9.20;;;1.40;;
78416;SDS011;67715;46.170;6.140;2023-08-06T04:53:10;9.95;;;1.60;;
78416;SDS011;67715;46.170;6.140;2023-08-06T04:55:36;6.00;;;1.43;;
78416;SDS011;67715;46.170;6.140;2023-08-06T04:58:01;4.90;;;1.50;;
78416;SDS011;67715;46.170;6.140;2023-08-06T05:00:26;7.23;;;1.47;;
78416;SDS011;67715;46.170;6.140;2023-08-06T05:02:52;10.93;;;1.83;;
78416;SDS011;67715;46.170;6.140;2023-08-06T05:05:17;6.70;;;1.73;;
78416;SDS011;67715;46.170;6.140;2023-08-06T05:07:42;6.37;;;1.13;;
78416;SDS011;67715;46.170;6.140;2023-08-06T05:10:08;5.57;;;1.00;;
78416;SDS011;67715;46.170;6.140;2023-08-06T05:12:33;4.13;;;0.88;;
78416;SDS011;67715;46.170;6.140;2023-08-06T05:14:58;7.60;;;2.10;;
78416;SDS011;67715;46.170;6.140;2023-08-06T05:17:24;4.87;;;1.47;;
78416;SDS011;67715;46.170;6.140;2023-08-06T05:19:49;6.03;;;1.40;;
78416;SDS011;67715;46.170;6.140;2023-08-06T05:22:14;6.22;;;1.25;;
78416;SDS011;67715;46.170;6.140;2023-08-06T05:24:40;8.67;;;1.43;;
78416;SDS011;67715;46.170;6.140;2023-08-06T05:27:05;8.33;;;1.40;;
78416;SDS011;67715;46.170;6.140;2023-08-06T05:29:30;5.93;;;1.38;;
78416;SDS011;67715;46.170;6.140;2023-08-06T05:31:56;4.53;;;1.08;;
78416;SDS011;67715;46.170;6.140;2023-08-06T05:34:21;4.40;;;0.97;;
78416;SDS011;67715;46.170;6.140;2023-08-06T05:36:46;6.63;;;1.10;;
78416;SDS011;67715;46.170;6.140;2023-08-06T05:39:12;1.63;;;0.70;;
78416;SDS011;67715;46.170;6.140;2023-08-06T05:41:37;3.73;;;1.40;;
78416;SDS011;67715;46.170;6.140;2023-08-06T05:44:02;3.00;;;0.98;;
78416;SDS011;67715;46.170;6.140;2023-08-06T05:46:28;8.05;;;1.17;;
78416;SDS011;67715;46.170;6.140;2023-08-06T05:48:53;2.53;;;1.10;;
78416;SDS011;67715;46.170;6.140;2023-08-06T05:51:19;8.57;;;1.23;;
78416;SDS011;67715;46.170;6.140;2023-08-06T05:53:44;3.10;;;0.70;;
78416;SDS011;67715;46.170;6.140;2023-08-06T05:56:10;4.28;;;1.55;;
78416;SDS011;67715;46.170;6.140;2023-08-06T05:58:36;1.95;;;0.45;;
78416;SDS011;67715;46.170;6.140;2023-08-06T06:01:01;4.27;;;0.73;;
78416;SDS011;67715;46.170;6.140;2023-08-06T06:03:26;4.10;;;0.87;;
78416;SDS011;67715;46.170;6.140;2023-08-06T06:05:52;3.43;;;0.90;;
78416;SDS011;67715;46.170;6.140;2023-08-06T06:08:17;3.67;;;0.70;;
78416;SDS011;67715;46.170;6.140;2023-08-06T06:10:42;3.53;;;0.70;;
78416;SDS011;67715;46.170;6.140;2023-08-06T06:13:08;4.10;;;0.83;;
78416;SDS011;67715;46.170;6.140;2023-08-06T06:15:33;2.97;;;0.70;;
78416;SDS011;67715;46.170;6.140;2023-08-06T06:17:58;3.17;;;0.67;;
78416;SDS011;67715;46.170;6.140;2023-08-06T06:20:23;1.87;;;0.67;;
78416;SDS011;67715;46.170;6.140;2023-08-06T06:22:49;1.88;;;0.65;;
78416;SDS011;67715;46.170;6.140;2023-08-06T06:25:14;4.17;;;1.13;;
78416;SDS011;67715;46.170;6.140;2023-08-06T06:27:39;4.23;;;0.77;;
78416;SDS011;67715;46.170;6.140;2023-08-06T06:30:05;3.77;;;0.50;;
78416;SDS011;67715;46.170;6.140;2023-08-06T06:32:31;4.30;;;0.60;;
78416;SDS011;67715;46.170;6.140;2023-08-06T06:34:57;3.17;;;1.27;;
78416;SDS011;67715;46.170;6.140;2023-08-06T06:37:23;4.72;;;0.93;;
78416;SDS011;67715;46.170;6.140;2023-08-06T06:39:48;2.73;;;0.70;;
78416;SDS011;67715;46.170;6.140;2023-08-06T06:42:14;2.38;;;0.60;;
78416;SDS011;67715;46.170;6.140;2023-08-06T06:44:40;2.42;;;1.08;;
78416;SDS011;67715;46.170;6.140;2023-08-06T06:47:05;4.28;;;0.70;;
78416;SDS011;67715;46.170;6.140;2023-08-06T06:49:30;3.87;;;0.77;;
78416;SDS011;67715;46.170;6.140;2023-08-06T06:51:56;1.17;;;0.43;;
78416;SDS011;67715;46.170;6.140;2023-08-06T06:54:21;3.03;;;0.60;;
78416;SDS011;67715;46.170;6.140;2023-08-06T06:56:46;3.20;;;0.73;;
78416;SDS011;67715;46.170;6.140;2023-08-06T06:59:12;4.17;;;0.97;;
78416;SDS011;67715;46.170;6.140;2023-08-06T07:01:37;2.93;;;0.60;;
78416;SDS011;67715;46.170;6.140;2023-08-06T07:04:02;3.03;;;0.60;;
78416;SDS011;67715;46.170;6.140;2023-08-06T07:06:30;2.38;;;0.88;;
78416;SDS011;67715;46.170;6.140;2023-08-06T07:08:55;3.67;;;0.50;;
78416;SDS011;67715;46.170;6.140;2023-08-06T07:11:21;1.47;;;0.60;;
78416;SDS011;67715;46.170;6.140;2023-08-06T07:13:46;1.87;;;0.80;;
78416;SDS011;67715;46.170;6.140;2023-08-06T07:16:11;2.25;;;0.50;;
78416;SDS011;67715;46.170;6.140;2023-08-06T07:18:37;2.00;;;0.60;;
78416;SDS011;67715;46.170;6.140;2023-08-06T07:21:02;1.67;;;0.70;;
78416;SDS011;67715;46.170;6.140;2023-08-06T07:23:27;2.33;;;0.50;;
78416;SDS011;67715;46.170;6.140;2023-08-06T07:25:53;6.70;;;6.15;;
78416;SDS011;67715;46.170;6.140;2023-08-06T07:28:18;1.08;;;0.32;;
78416;SDS011;67715;46.170;6.140;2023-08-06T07:30:44;2.10;;;0.70;;
78416;SDS011;67715;46.170;6.140;2023-08-06T07:33:10;2.38;;;0.55;;
78416;SDS011;67715;46.170;6.140;2023-08-06T07:35:35;2.70;;;0.70;;
78416;SDS011;67715;46.170;6.140;2023-08-06T07:38:01;3.08;;;0.50;;
78416;SDS011;67715;46.170;6.140;2023-08-06T07:40:27;2.22;;;0.57;;
78416;SDS011;67715;46.170;6.140;2023-08-06T07:42:52;1.93;;;0.50;;
78416;SDS011;67715;46.170;6.140;2023-08-06T07:45:18;1.17;;;0.50;;
78416;SDS011;67715;46.170;6.140;2023-08-06T07:47:43;2.08;;;0.30;;
78416;SDS011;67715;46.170;6.140;2023-08-06T07:50:09;1.07;;;0.50;;
78416;SDS011;67715;46.170;6.140;2023-08-06T07:52:34;1.00;;;0.40;;
78416;SDS011;67715;46.170;6.140;2023-08-06T07:55:00;2.53;;;0.45;;
78416;SDS011;67715;46.170;6.140;2023-08-06T07:57:26;1.10;;;0.40;;
78416;SDS011;67715;46.170;6.140;2023-08-06T07:59:52;0.85;;;0.30;;
78416;SDS011;67715;46.170;6.140;2023-08-06T08:02:18;0.52;;;0.25;;
78416;SDS011;67715;46.170;6.140;2023-08-06T08:04:44;1.38;;;0.38;;
78416;SDS011;67715;46.170;6.140;2023-08-06T08:07:12;4.85;;;0.50;;
78416;SDS011;67715;46.170;6.140;2023-08-06T08:09:37;1.83;;;0.50;;
78416;SDS011;67715;46.170;6.140;2023-08-06T08:12:02;1.70;;;0.33;;
78416;SDS011;67715;46.170;6.140;2023-08-06T08:14:28;3.53;;;0.40;;
78416;SDS011;67715;46.170;6.140;2023-08-06T08:16:54;1.50;;;0.40;;
78416;SDS011;67715;46.170;6.140;2023-08-06T08:19:19;1.02;;;0.45;;
78416;SDS011;67715;46.170;6.140;2023-08-06T08:21:45;1.63;;;0.30;;
78416;SDS011;67715;46.170;6.140;2023-08-06T08:24:10;1.77;;;0.50;;
78416;SDS011;67715;46.170;6.140;2023-08-06T08:26:35;2.03;;;0.50;;
78416;SDS011;67715;46.170;6.140;2023-08-06T08:29:01;0.53;;;0.27;;
78416;SDS011;67715;46.170;6.140;2023-08-06T08:31:26;1.63;;;0.30;;
78416;SDS011;67715;46.170;6.140;2023-08-06T08:33:53;0.85;;;0.57;;
78416;SDS011;67715;46.170;6.140;2023-08-06T08:36:18;1.43;;;0.37;;
78416;SDS011;67715;46.170;6.140;2023-08-06T08:38:44;2.53;;;0.33;;
78416;SDS011;67715;46.170;6.140;2023-08-06T08:41:09;1.60;;;0.40;;
78416;SDS011;67715;46.170;6.140;2023-08-06T08:43:35;1.10;;;0.35;;
78416;SDS011;67715;46.170;6.140;2023-08-06T08:46:00;2.28;;;0.40;;
78416;SDS011;67715;46.170;6.140;2023-08-06T08:48:27;2.60;;;0.40;;
78416;SDS011;67715;46.170;6.140;2023-08-06T08:50:52;1.45;;;0.30;;
78416;SDS011;67715;46.170;6.140;2023-08-06T08:53:17;1.52;;;0.40;;
78416;SDS011;67715;46.170;6.140;2023-08-06T08:55:46;1.50;;;0.60;;
78416;SDS011;67715;46.170;6.140;2023-08-06T08:58:15;1.67;;;0.63;;
78416;SDS011;67715;46.170;6.140;2023-08-06T09:00:45;0.85;;;0.10;;
78416;SDS011;67715;46.170;6.140;2023-08-06T09:03:11;5.55;;;0.52;;
78416;SDS011;67715;46.170;6.140;2023-08-06T09:05:36;1.55;;;0.70;;
78416;SDS011;67715;46.170;6.140;2023-08-06T09:08:08;3.00;;;0.45;;
78416;SDS011;67715;46.170;6.140;2023-08-06T09:10:37;1.38;;;0.30;;
78416;SDS011;67715;46.170;6.140;2023-08-06T09:13:03;0.68;;;0.30;;
78416;SDS011;67715;46.170;6.140;2023-08-06T09:15:29;0.50;;;0.28;;
78416;SDS011;67715;46.170;6.140;2023-08-06T09:17:55;1.00;;;0.40;;
78416;SDS011;67715;46.170;6.140;2023-08-06T09:20:21;0.45;;;0.30;;
78416;SDS011;67715;46.170;6.140;2023-08-06T09:22:46;2.40;;;0.68;;
78416;SDS011;67715;46.170;6.140;2023-08-06T09:25:20;2.80;;;0.40;;
78416;SDS011;67715;46.170;6.140;2023-08-06T09:27:48;1.17;;;0.20;;
78416;SDS011;67715;46.170;6.140;2023-08-06T09:30:19;0.30;;;0.20;;
78416;SDS011;67715;46.170;6.140;2023-08-06T09:32:55;1.25;;;0.40;;
78416;SDS011;67715;46.170;6.140;2023-08-06T09:35:21;1.43;;;0.23;;
78416;SDS011;67715;46.170;6.140;2023-08-06T09:37:46;1.08;;;0.20;;
78416;SDS011;67715;46.170;6.140;2023-08-06T09:40:28;0.63;;;0.20;;
78416;SDS011;67715;46.170;6.140;2023-08-06T09:42:54;2.40;;;0.32;;
78416;SDS011;67715;46.170;6.140;2023-08-06T09:45:20;0.73;;;0.30;;
78416;SDS011;67715;46.170;6.140;2023-08-06T09:47:47;1.67;;;0.30;;
78416;SDS011;67715;46.170;6.140;2023-08-06T09:50:16;0.63;;;0.32;;
78416;SDS011;67715;46.170;6.140;2023-08-06T09:52:43;0.52;;;0.20;;
78416;SDS011;67715;46.170;6.140;2023-08-06T09:55:10;0.45;;;0.30;;
78416;SDS011;67715;46.170;6.140;2023-08-06T09:57:36;1.27;;;0.30;;
78416;SDS011;67715;46.170;6.140;2023-08-06T10:00:01;1.00;;;0.17;;
78416;SDS011;67715;46.170;6.140;2023-08-06T10:02:27;0.90;;;0.25;;
78416;SDS011;67715;46.170;6.140;2023-08-06T10:04:53;0.73;;;0.30;;
78416;SDS011;67715;46.170;6.140;2023-08-06T10:07:20;0.30;;;0.20;;
78416;SDS011;67715;46.170;6.140;2023-08-06T10:09:47;1.15;;;0.30;;
78416;SDS011;67715;46.170;6.140;2023-08-06T10:12:13;1.33;;;0.30;;
78416;SDS011;67715;46.170;6.140;2023-08-06T10:14:39;0.57;;;0.25;;
78416;SDS011;67715;46.170;6.140;2023-08-06T10:17:06;1.35;;;0.40;;
78416;SDS011;67715;46.170;6.140;2023-08-06T10:19:32;0.98;;;0.38;;
78416;SDS011;67715;46.170;6.140;2023-08-06T10:22:17;1.08;;;0.20;;
78416;SDS011;67715;46.170;6.140;2023-08-06T10:24:52;1.30;;;0.28;;
78416;SDS011;67715;46.170;6.140;2023-08-06T10:27:19;1.15;;;0.38;;
78416;SDS011;67715;46.170;6.140;2023-08-06T10:32:52;1.02;;;0.30;;
78416;SDS011;67715;46.170;6.140;2023-08-06T10:38:43;0.65;;;0.30;;
78416;SDS011;67715;46.170;6.140;2023-08-06T10:43:35;0.52;;;0.20;;
78416;SDS011;67715;46.170;6.140;2023-08-06T10:46:09;0.30;;;0.20;;
78416;SDS011;67715;46.170;6.140;2023-08-06T10:48:36;0.20;;;0.20;;
78416;SDS011;67715;46.170;6.140;2023-08-06T10:51:03;1.17;;;0.30;;
78416;SDS011;67715;46.170;6.140;2023-08-06T10:53:32;0.60;;;0.30;;
78416;SDS011;67715;46.170;6.140;2023-08-06T10:55:57;0.50;;;0.30;;
78416;SDS011;67715;46.170;6.140;2023-08-06T10:58:22;1.70;;;0.40;;
78416;SDS011;67715;46.170;6.140;2023-08-06T11:00:48;0.60;;;0.40;;
78416;SDS011;67715;46.170;6.140;2023-08-06T11:03:14;2.27;;;0.40;;
78416;SDS011;67715;46.170;6.140;2023-08-06T11:05:39;0.95;;;0.30;;
78416;SDS011;67715;46.170;6.140;2023-08-06T11:08:05;0.47;;;0.20;;
78416;SDS011;67715;46.170;6.140;2023-08-06T11:10:32;0.17;;;0.10;;
78416;SDS011;67715;46.170;6.140;2023-08-06T11:13:01;0.50;;;0.20;;
78416;SDS011;67715;46.170;6.140;2023-08-06T11:15:27;1.33;;;0.20;;
78416;SDS011;67715;46.170;6.140;2023-08-06T11:17:53;0.32;;;0.20;;
78416;SDS011;67715;46.170;6.140;2023-08-06T11:20:18;0.20;;;0.20;;
78416;SDS011;67715;46.170;6.140;2023-08-06T11:22:46;0.45;;;0.10;;
78416;SDS011;67715;46.170;6.140;2023-08-06T11:25:11;0.90;;;0.30;;
78416;SDS011;67715;46.170;6.140;2023-08-06T11:27:36;2.73;;;1.20;;
78416;SDS011;67715;46.170;6.140;2023-08-06T11:30:02;0.93;;;0.20;;
78416;SDS011;67715;46.170;6.140;2023-08-06T11:32:27;1.33;;;0.20;;
78416;SDS011;67715;46.170;6.140;2023-08-06T11:34:53;1.08;;;0.40;;
78416;SDS011;67715;46.170;6.140;2023-08-06T11:37:23;0.63;;;0.30;;
78416;SDS011;67715;46.170;6.140;2023-08-06T11:39:51;0.75;;;0.35;;
78416;SDS011;67715;46.170;6.140;2023-08-06T11:42:17;0.45;;;0.20;;
78416;SDS011;67715;46.170;6.140;2023-08-06T11:44:42;0.63;;;0.30;;
78416;SDS011;67715;46.170;6.140;2023-08-06T11:47:11;0.73;;;0.20;;
78416;SDS011;67715;46.170;6.140;2023-08-06T11:49:47;1.90;;;0.40;;
78416;SDS011;67715;46.170;6.140;2023-08-06T11:52:14;0.98;;;0.30;;
78416;SDS011;67715;46.170;6.140;2023-08-06T11:57:37;0.90;;;0.70;;
78416;SDS011;67715;46.170;6.140;2023-08-06T12:00:05;0.73;;;0.40;;
78416;SDS011;67715;46.170;6.140;2023-08-06T12:02:32;2.45;;;0.60;;
78416;SDS011;67715;46.170;6.140;2023-08-06T12:05:02;1.50;;;0.75;;
78416;SDS011;67715;46.170;6.140;2023-08-06T12:07:32;2.60;;;1.27;;
78416;SDS011;67715;46.170;6.140;2023-08-06T12:10:02;0.82;;;0.40;;
78416;SDS011;67715;46.170;6.140;2023-08-06T12:12:27;1.30;;;0.50;;
78416;SDS011;67715;46.170;6.140;2023-08-06T12:14:53;1.13;;;0.40;;
78416;SDS011;67715;46.170;6.140;2023-08-06T12:17:19;0.55;;;0.20;;
78416;SDS011;67715;46.170;6.140;2023-08-06T12:19:45;1.73;;;1.30;;
78416;SDS011;67715;46.170;6.140;2023-08-06T12:22:12;0.60;;;0.47;;
78416;SDS011;67715;46.170;6.140;2023-08-06T12:24:38;0.80;;;0.60;;
78416;SDS011;67715;46.170;6.140;2023-08-06T12:27:04;0.47;;;0.30;;
78416;SDS011;67715;46.170;6.140;2023-08-06T12:29:30;0.95;;;0.35;;
78416;SDS011;67715;46.170;6.140;2023-08-06T12:31:56;0.93;;;0.30;;
78416;SDS011;67715;46.170;6.140;2023-08-06T12:34:21;1.58;;;0.45;;
78416;SDS011;67715;46.170;6.140;2023-08-06T12:36:46;0.90;;;0.40;;
78416;SDS011;67715;46.170;6.140;2023-08-06T12:39:12;1.57;;;0.50;;
78416;SDS011;67715;46.170;6.140;2023-08-06T12:41:38;1.77;;;0.52;;
78416;SDS011;67715;46.170;6.140;2023-08-06T12:44:03;1.50;;;0.55;;
78416;SDS011;67715;46.170;6.140;2023-08-06T12:46:28;1.23;;;0.23;;
78416;SDS011;67715;46.170;6.140;2023-08-06T12:48:54;0.38;;;0.25;;
78416;SDS011;67715;46.170;6.140;2023-08-06T12:51:19;0.43;;;0.20;;
78416;SDS011;67715;46.170;6.140;2023-08-06T12:53:44;0.40;;;0.30;;
78416;SDS011;67715;46.170;6.140;2023-08-06T12:56:10;1.77;;;0.40;;
78416;SDS011;67715;46.170;6.140;2023-08-06T12:58:35;0.67;;;0.40;;
78416;SDS011;67715;46.170;6.140;2023-08-06T13:01:00;1.07;;;0.40;;
78416;SDS011;67715;46.170;6.140;2023-08-06T13:03:25;1.27;;;0.50;;
78416;SDS011;67715;46.170;6.140;2023-08-06T13:05:51;1.75;;;0.50;;
78416;SDS011;67715;46.170;6.140;2023-08-06T13:08:17;1.30;;;0.40;;
78416;SDS011;67715;46.170;6.140;2023-08-06T13:10:42;1.08;;;0.40;;
78416;SDS011;67715;46.170;6.140;2023-08-06T13:13:07;1.20;;;0.45;;
78416;SDS011;67715;46.170;6.140;2023-08-06T13:15:35;0.50;;;0.20;;
78416;SDS011;67715;46.170;6.140;2023-08-06T13:18:00;1.02;;;0.50;;
78416;SDS011;67715;46.170;6.140;2023-08-06T13:20:25;0.30;;;0.23;;
78416;SDS011;67715;46.170;6.140;2023-08-06T13:22:51;0.95;;;0.50;;
78416;SDS011;67715;46.170;6.140;2023-08-06T13:25:18;0.77;;;0.40;;
78416;SDS011;67715;46.170;6.140;2023-08-06T13:27:44;2.50;;;0.47;;
78416;SDS011;67715;46.170;6.140;2023-08-06T13:30:10;2.50;;;0.45;;
78416;SDS011;67715;46.170;6.140;2023-08-06T13:32:36;0.85;;;0.47;;
78416;SDS011;67715;46.170;6.140;2023-08-06T13:35:02;0.95;;;0.30;;
78416;SDS011;67715;46.170;6.140;2023-08-06T13:37:29;3.05;;;0.60;;
78416;SDS011;67715;46.170;6.140;2023-08-06T13:39:54;0.67;;;0.40;;
78416;SDS011;67715;46.170;6.140;2023-08-06T13:42:19;1.30;;;0.40;;
78416;SDS011;67715;46.170;6.140;2023-08-06T13:44:45;0.97;;;0.40;;
78416;SDS011;67715;46.170;6.140;2023-08-06T13:47:10;2.33;;;0.57;;
78416;SDS011;67715;46.170;6.140;2023-08-06T13:49:35;1.17;;;0.30;;
78416;SDS011;67715;46.170;6.140;2023-08-06T13:52:01;0.80;;;0.35;;
78416;SDS011;67715;46.170;6.140;2023-08-06T13:54:26;1.80;;;0.50;;
78416;SDS011;67715;46.170;6.140;2023-08-06T13:56:51;0.73;;;0.30;;
78416;SDS011;67715;46.170;6.140;2023-08-06T13:59:18;1.55;;;1.00;;
78416;SDS011;67715;46.170;6.140;2023-08-06T14:01:44;5.90;;;2.97;;
78416;SDS011;67715;46.170;6.140;2023-08-06T14:04:10;3.10;;;1.52;;
78416;SDS011;67715;46.170;6.140;2023-08-06T14:06:35;2.80;;;0.90;;
78416;SDS011;67715;46.170;6.140;2023-08-06T14:09:00;0.90;;;0.33;;
78416;SDS011;67715;46.170;6.140;2023-08-06T14:11:26;0.50;;;0.30;;
78416;SDS011;67715;46.170;6.140;2023-08-06T14:13:51;1.83;;;1.50;;
78416;SDS011;67715;46.170;6.140;2023-08-06T14:16:17;0.95;;;0.28;;
78416;SDS011;67715;46.170;6.140;2023-08-06T14:18:42;1.60;;;0.47;;
78416;SDS011;67715;46.170;6.140;2023-08-06T14:21:07;0.93;;;0.50;;
78416;SDS011;67715;46.170;6.140;2023-08-06T14:23:33;1.55;;;0.32;;
78416;SDS011;67715;46.170;6.140;2023-08-06T14:25:58;1.05;;;0.32;;
78416;SDS011;67715;46.170;6.140;2023-08-06T14:28:24;1.23;;;0.40;;
78416;SDS011;67715;46.170;6.140;2023-08-06T14:30:49;2.30;;;0.87;;
78416;SDS011;67715;46.170;6.140;2023-08-06T14:33:14;1.93;;;0.40;;
78416;SDS011;67715;46.170;6.140;2023-08-06T14:35:40;0.60;;;0.50;;
78416;SDS011;67715;46.170;6.140;2023-08-06T14:38:05;1.30;;;0.70;;
78416;SDS011;67715;46.170;6.140;2023-08-06T14:40:30;0.85;;;0.52;;
78416;SDS011;67715;46.170;6.140;2023-08-06T14:43:00;0.80;;;0.43;;
78416;SDS011;67715;46.170;6.140;2023-08-06T14:45:26;2.15;;;0.52;;
78416;SDS011;67715;46.170;6.140;2023-08-06T14:47:51;1.10;;;0.70;;
78416;SDS011;67715;46.170;6.140;2023-08-06T14:50:17;3.13;;;0.80;;
78416;SDS011;67715;46.170;6.140;2023-08-06T14:52:42;1.33;;;0.67;;
78416;SDS011;67715;46.170;6.140;2023-08-06T14:55:07;1.10;;;0.57;;
78416;SDS011;67715;46.170;6.140;2023-08-06T14:57:33;1.00;;;0.73;;
78416;SDS011;67715;46.170;6.140;2023-08-06T14:59:58;1.90;;;0.60;;